Aeroporto :
LOGIN :

Iscrizione | Disclaimer

   EN    FR    IT 

 










Sommario :    VFR   VFR Marginale   IFR   IFR Intensivo   IFR Molto Intensivo
Visibilità : 
Base nubi : 
>= 8 km
>= 3000ft
5 / 8 km
1000 / 3000 ft
1500m / 5 km
500 / 1000 ft
800 / 1500m
200 / 500 ft
< 800m
< 200 ft
Simboli :   Temporali  Nebbia  Neve Forte  Precipitazioni Forti  Vento > 20 kt
SIGMETs :   Varie  Temporali  Ghiacco  Turbolenza  Onda orograficha  Ceneri Vulcaniche






- Altitudine del aeroporto : 290 ft
- Codice IATA : OSI


LDOS - Osijek

ULTIMO METAR :
  • 260030Z 29010KT CAVOK 10/08 Q1024

METARs OBSOLETI :
  • 260000Z 30009KT CAVOK 11/09 Q1024
  • 252330Z 30010KT CAVOK 12/09 Q1024
  • 252300Z 29010KT CAVOK 11/10 Q1024
  • 252230Z 29010KT CAVOK 11/10 Q1024
  • 252200Z 28009KT CAVOK 10/09 Q1024

TAF TAF LDOS
Valido dal 26 a 00 ore il 27 a 00 ore UTC


252334Z 2600/2700 30012KT 9999 FEW045 TX21/2613Z TN09/2604Z
TEMPO 2612/2618 SHRA FEW040TCU BKN045
PROB30
TEMPO 2613/2618 33018G28KT TSRA FEW040CB BKN045



MetMap, La meteo Aeronautica in un colpo d'occhio ! - Copyright ORBIFLY Dicembre 2007 - Disclaimer

ORBIFLY MET'MAP TEAM :

Programmazione e sviluppo : Alexandra Zaïnal
Concezione : Baudouin d'Aumeries
Aiuto per la programmazione : Marc-Olivier Méhu
Supporto tecnico e logistico : Manuel Goepfert
Aiuto per la traduzione : Arnaldo La Scala

Contatto : metmap@orbifly.com




FONTI E CREDITI :

   NOAA